sensor_id;sensor_type;location;lat;lon;timestamp;pressure;altitude;pressure_sealevel;temperature;humidity
33151;BME280;19508;42.578;23.416;2023-02-17T00:01:41;94583.19;;;0.01;71.07
33151;BME280;19508;42.578;23.416;2023-02-17T00:04:07;94599.38;;;0.06;71.04
33151;BME280;19508;42.578;23.416;2023-02-17T00:06:32;94585.00;;;0.09;70.94
33151;BME280;19508;42.578;23.416;2023-02-17T00:08:58;94582.06;;;-0.05;71.55
33151;BME280;19508;42.578;23.416;2023-02-17T00:11:24;94589.53;;;-0.08;72.07
33151;BME280;19508;42.578;23.416;2023-02-17T00:13:52;94577.22;;;-0.01;71.53
33151;BME280;19508;42.578;23.416;2023-02-17T00:16:23;94584.50;;;0.05;71.44
33151;BME280;19508;42.578;23.416;2023-02-17T00:18:58;94592.78;;;0.10;71.26
33151;BME280;19508;42.578;23.416;2023-02-17T00:21:25;94586.16;;;-0.02;70.97
33151;BME280;19508;42.578;23.416;2023-02-17T00:23:52;94576.75;;;-0.05;70.90
33151;BME280;19508;42.578;23.416;2023-02-17T00:26:18;94580.78;;;-0.17;71.30
33151;BME280;19508;42.578;23.416;2023-02-17T00:28:44;94587.16;;;-0.03;71.15
33151;BME280;19508;42.578;23.416;2023-02-17T00:31:13;94582.91;;;-0.12;71.74
33151;BME280;19508;42.578;23.416;2023-02-17T00:33:39;94575.00;;;-0.29;72.00
33151;BME280;19508;42.578;23.416;2023-02-17T00:36:06;94581.63;;;-0.24;72.64
33151;BME280;19508;42.578;23.416;2023-02-17T00:38:32;94573.88;;;-0.42;72.84
33151;BME280;19508;42.578;23.416;2023-02-17T00:40:57;94574.69;;;-0.42;73.25
33151;BME280;19508;42.578;23.416;2023-02-17T00:43:23;94566.78;;;-0.50;73.67
33151;BME280;19508;42.578;23.416;2023-02-17T00:45:48;94566.25;;;-0.45;73.47
33151;BME280;19508;42.578;23.416;2023-02-17T00:48:13;94570.69;;;-0.21;73.29
33151;BME280;19508;42.578;23.416;2023-02-17T00:50:39;94554.16;;;-0.32;72.54
33151;BME280;19508;42.578;23.416;2023-02-17T00:53:04;94555.16;;;-0.24;72.81
33151;BME280;19508;42.578;23.416;2023-02-17T00:55:30;94545.56;;;-0.34;72.86
33151;BME280;19508;42.578;23.416;2023-02-17T00:57:55;94563.41;;;-0.36;72.62
33151;BME280;19508;42.578;23.416;2023-02-17T01:00:20;94552.19;;;-0.38;73.29
33151;BME280;19508;42.578;23.416;2023-02-17T01:02:46;94555.16;;;-0.33;72.88
33151;BME280;19508;42.578;23.416;2023-02-17T01:05:11;94558.81;;;-0.34;72.88
33151;BME280;19508;42.578;23.416;2023-02-17T01:07:37;94558.00;;;-0.42;73.08
33151;BME280;19508;42.578;23.416;2023-02-17T01:10:04;94558.66;;;-0.40;73.28
33151;BME280;19508;42.578;23.416;2023-02-17T01:12:29;94549.88;;;-0.41;73.42
33151;BME280;19508;42.578;23.416;2023-02-17T01:14:55;94545.56;;;-0.25;73.35
33151;BME280;19508;42.578;23.416;2023-02-17T01:17:20;94544.84;;;-0.11;72.44
33151;BME280;19508;42.578;23.416;2023-02-17T01:19:46;94532.59;;;-0.12;72.02
33151;BME280;19508;42.578;23.416;2023-02-17T01:22:11;94528.53;;;-0.31;72.31
33151;BME280;19508;42.578;23.416;2023-02-17T01:24:37;94548.53;;;-0.37;72.63
33151;BME280;19508;42.578;23.416;2023-02-17T01:27:03;94545.50;;;-0.17;72.06
33151;BME280;19508;42.578;23.416;2023-02-17T01:29:28;94530.31;;;-0.15;72.16
33151;BME280;19508;42.578;23.416;2023-02-17T01:31:54;94535.22;;;-0.04;71.83
33151;BME280;19508;42.578;23.416;2023-02-17T01:34:19;94537.84;;;0.04;71.62
33151;BME280;19508;42.578;23.416;2023-02-17T01:36:44;94535.88;;;-0.10;71.25
33151;BME280;19508;42.578;23.416;2023-02-17T01:39:13;94557.59;;;-0.15;72.29
33151;BME280;19508;42.578;23.416;2023-02-17T01:41:38;94534.56;;;-0.06;71.38
33151;BME280;19508;42.578;23.416;2023-02-17T01:44:17;94541.75;;;-0.23;72.41
33151;BME280;19508;42.578;23.416;2023-02-17T01:46:46;94535.44;;;-0.22;72.45
33151;BME280;19508;42.578;23.416;2023-02-17T01:51:44;94522.41;;;0.08;71.64
33151;BME280;19508;42.578;23.416;2023-02-17T01:54:15;94528.63;;;-0.08;71.94
33151;BME280;19508;42.578;23.416;2023-02-17T01:56:44;94534.25;;;-0.11;71.74
33151;BME280;19508;42.578;23.416;2023-02-17T01:59:16;94515.34;;;0.00;71.71
33151;BME280;19508;42.578;23.416;2023-02-17T02:01:43;94525.66;;;-0.13;72.05
33151;BME280;19508;42.578;23.416;2023-02-17T02:04:09;94534.09;;;-0.18;72.03
33151;BME280;19508;42.578;23.416;2023-02-17T02:06:35;94527.50;;;-0.22;72.55
33151;BME280;19508;42.578;23.416;2023-02-17T02:09:03;94530.47;;;-0.17;73.12
33151;BME280;19508;42.578;23.416;2023-02-17T02:11:30;94512.38;;;-0.05;72.75
33151;BME280;19508;42.578;23.416;2023-02-17T02:13:56;94523.50;;;-0.18;73.40
33151;BME280;19508;42.578;23.416;2023-02-17T02:16:23;94515.63;;;0.13;72.39
33151;BME280;19508;42.578;23.416;2023-02-17T02:25:04;94527.31;;;0.27;72.61
33151;BME280;19508;42.578;23.416;2023-02-17T02:30:52;94514.31;;;0.09;72.75
33151;BME280;19508;42.578;23.416;2023-02-17T02:33:35;94515.25;;;0.16;72.71
33151;BME280;19508;42.578;23.416;2023-02-17T02:36:20;94508.81;;;0.19;72.18
33151;BME280;19508;42.578;23.416;2023-02-17T02:38:56;94513.28;;;0.18;72.36
33151;BME280;19508;42.578;23.416;2023-02-17T02:41:47;94516.72;;;-0.12;73.46
33151;BME280;19508;42.578;23.416;2023-02-17T02:44:13;94505.69;;;0.07;72.49
33151;BME280;19508;42.578;23.416;2023-02-17T02:46:39;94513.16;;;0.12;72.07
33151;BME280;19508;42.578;23.416;2023-02-17T02:49:06;94508.38;;;-0.01;72.47
33151;BME280;19508;42.578;23.416;2023-02-17T02:52:12;94524.31;;;-0.09;72.94
33151;BME280;19508;42.578;23.416;2023-02-17T02:54:51;94525.31;;;-0.18;73.28
33151;BME280;19508;42.578;23.416;2023-02-17T02:57:51;94525.59;;;0.03;73.12
33151;BME280;19508;42.578;23.416;2023-02-17T03:03:38;94523.00;;;-0.13;73.26
33151;BME280;19508;42.578;23.416;2023-02-17T03:09:10;94506.19;;;0.11;72.92
33151;BME280;19508;42.578;23.416;2023-02-17T03:11:37;94523.72;;;-0.28;74.02
33151;BME280;19508;42.578;23.416;2023-02-17T03:14:10;94526.41;;;0.04;73.39
33151;BME280;19508;42.578;23.416;2023-02-17T03:16:36;94533.03;;;-0.01;72.96
33151;BME280;19508;42.578;23.416;2023-02-17T03:19:02;94530.13;;;-0.14;73.75
33151;BME280;19508;42.578;23.416;2023-02-17T03:21:34;94525.31;;;-0.18;73.63
33151;BME280;19508;42.578;23.416;2023-02-17T03:24:02;94527.44;;;-0.06;73.83
33151;BME280;19508;42.578;23.416;2023-02-17T03:26:28;94524.91;;;0.09;73.70
33151;BME280;19508;42.578;23.416;2023-02-17T03:28:53;94528.13;;;0.27;72.80
33151;BME280;19508;42.578;23.416;2023-02-17T03:31:18;94522.94;;;0.34;72.40
33151;BME280;19508;42.578;23.416;2023-02-17T03:33:44;94533.06;;;0.31;72.12
33151;BME280;19508;42.578;23.416;2023-02-17T03:36:09;94528.03;;;0.13;72.78
33151;BME280;19508;42.578;23.416;2023-02-17T03:38:34;94519.59;;;0.17;72.79
33151;BME280;19508;42.578;23.416;2023-02-17T03:41:00;94529.63;;;0.22;72.39
33151;BME280;19508;42.578;23.416;2023-02-17T03:43:25;94520.22;;;0.19;72.69
33151;BME280;19508;42.578;23.416;2023-02-17T03:45:51;94517.28;;;0.45;71.18
33151;BME280;19508;42.578;23.416;2023-02-17T03:48:16;94526.59;;;0.33;71.69
33151;BME280;19508;42.578;23.416;2023-02-17T03:50:42;94520.88;;;0.21;71.79
33151;BME280;19508;42.578;23.416;2023-02-17T03:53:07;94513.53;;;0.32;71.32
33151;BME280;19508;42.578;23.416;2023-02-17T03:55:32;94510.38;;;-0.03;72.34
33151;BME280;19508;42.578;23.416;2023-02-17T03:57:58;94513.78;;;0.14;72.07
33151;BME280;19508;42.578;23.416;2023-02-17T04:00:23;94508.31;;;0.15;72.13
33151;BME280;19508;42.578;23.416;2023-02-17T04:02:49;94509.63;;;0.19;71.91
33151;BME280;19508;42.578;23.416;2023-02-17T04:05:14;94504.66;;;0.16;71.71
33151;BME280;19508;42.578;23.416;2023-02-17T04:07:39;94497.47;;;0.02;72.19
33151;BME280;19508;42.578;23.416;2023-02-17T04:10:06;94499.38;;;0.16;71.71
33151;BME280;19508;42.578;23.416;2023-02-17T04:12:31;94502.63;;;-0.05;72.45
33151;BME280;19508;42.578;23.416;2023-02-17T04:14:56;94500.16;;;-0.06;72.92
33151;BME280;19508;42.578;23.416;2023-02-17T04:17:22;94519.63;;;0.09;72.64
33151;BME280;19508;42.578;23.416;2023-02-17T04:19:47;94515.63;;;0.13;72.03
33151;BME280;19508;42.578;23.416;2023-02-17T04:22:13;94522.56;;;0.14;71.90
33151;BME280;19508;42.578;23.416;2023-02-17T04:24:38;94513.16;;;0.12;71.64
33151;BME280;19508;42.578;23.416;2023-02-17T04:27:04;94515.63;;;0.13;72.22
33151;BME280;19508;42.578;23.416;2023-02-17T04:29:31;94530.88;;;0.03;72.48
33151;BME280;19508;42.578;23.416;2023-02-17T04:31:56;94524.28;;;-0.01;72.42
33151;BME280;19508;42.578;23.416;2023-02-17T04:34:21;94527.44;;;-0.06;72.58
33151;BME280;19508;42.578;23.416;2023-02-17T04:36:47;94523.22;;;0.08;72.92
33151;BME280;19508;42.578;23.416;2023-02-17T04:39:12;94523.19;;;0.16;72.61
33151;BME280;19508;42.578;23.416;2023-02-17T04:41:38;94511.31;;;0.12;72.31
33151;BME280;19508;42.578;23.416;2023-02-17T04:44:03;94518.28;;;0.05;72.56
33151;BME280;19508;42.578;23.416;2023-02-17T04:46:29;94518.34;;;-0.11;73.00
33151;BME280;19508;42.578;23.416;2023-02-17T04:48:54;94525.94;;;0.00;72.48
33151;BME280;19508;42.578;23.416;2023-02-17T04:51:22;94529.28;;;-0.06;72.85
33151;BME280;19508;42.578;23.416;2023-02-17T04:53:48;94518.91;;;0.15;72.35
33151;BME280;19508;42.578;23.416;2023-02-17T04:56:13;94519.94;;;0.06;72.50
33151;BME280;19508;42.578;23.416;2023-02-17T04:58:38;94522.88;;;0.19;72.09
33151;BME280;19508;42.578;23.416;2023-02-17T05:01:04;94524.25;;;0.07;72.58
33151;BME280;19508;42.578;23.416;2023-02-17T05:03:29;94513.97;;;0.12;72.67
33151;BME280;19508;42.578;23.416;2023-02-17T05:05:54;94534.47;;;0.18;71.96
33151;BME280;19508;42.578;23.416;2023-02-17T05:08:20;94538.59;;;-0.26;73.38
33151;BME280;19508;42.578;23.416;2023-02-17T05:10:46;94541.59;;;-0.30;74.08
33151;BME280;19508;42.578;23.416;2023-02-17T05:13:11;94531.72;;;0.04;73.08
33151;BME280;19508;42.578;23.416;2023-02-17T05:15:37;94533.78;;;0.16;72.69
33151;BME280;19508;42.578;23.416;2023-02-17T05:18:03;94554.34;;;0.14;72.32
33151;BME280;19508;42.578;23.416;2023-02-17T05:20:29;94566.69;;;-0.17;73.38
33151;BME280;19508;42.578;23.416;2023-02-17T05:22:54;94575.56;;;-0.02;72.85
33151;BME280;19508;42.578;23.416;2023-02-17T05:25:19;94563.63;;;0.10;72.66
33151;BME280;19508;42.578;23.416;2023-02-17T05:27:45;94567.31;;;0.01;72.77
33151;BME280;19508;42.578;23.416;2023-02-17T05:30:11;94552.47;;;0.23;72.05
33151;BME280;19508;42.578;23.416;2023-02-17T05:32:36;94549.31;;;0.27;72.29
33151;BME280;19508;42.578;23.416;2023-02-17T05:35:02;94556.66;;;0.48;71.55
33151;BME280;19508;42.578;23.416;2023-02-17T05:37:27;94575.25;;;0.40;71.29
33151;BME280;19508;42.578;23.416;2023-02-17T05:39:53;94579.47;;;0.26;71.55
33151;BME280;19508;42.578;23.416;2023-02-17T05:42:18;94583.00;;;0.42;71.51
33151;BME280;19508;42.578;23.416;2023-02-17T05:44:43;94550.94;;;0.37;71.60
33151;BME280;19508;42.578;23.416;2023-02-17T05:47:09;94562.47;;;0.52;71.53
33151;BME280;19508;42.578;23.416;2023-02-17T05:49:34;94578.78;;;0.64;71.63
33151;BME280;19508;42.578;23.416;2023-02-17T05:52:00;94581.22;;;0.96;70.58
33151;BME280;19508;42.578;23.416;2023-02-17T05:54:26;94582.09;;;0.89;70.47
33151;BME280;19508;42.578;23.416;2023-02-17T05:56:51;94589.31;;;1.03;70.61
33151;BME280;19508;42.578;23.416;2023-02-17T05:59:17;94581.47;;;1.09;70.01
33151;BME280;19508;42.578;23.416;2023-02-17T06:01:42;94595.97;;;1.22;69.64
33151;BME280;19508;42.578;23.416;2023-02-17T06:04:08;94597.19;;;1.34;69.42
33151;BME280;19508;42.578;23.416;2023-02-17T06:06:33;94589.16;;;1.19;69.80
33151;BME280;19508;42.578;23.416;2023-02-17T06:08:58;94603.97;;;1.36;69.30
33151;BME280;19508;42.578;23.416;2023-02-17T06:11:24;94594.78;;;1.62;69.00
33151;BME280;19508;42.578;23.416;2023-02-17T06:13:50;94590.81;;;1.43;69.19
33151;BME280;19508;42.578;23.416;2023-02-17T06:16:15;94584.63;;;1.51;68.75
33151;BME280;19508;42.578;23.416;2023-02-17T06:18:40;94593.81;;;1.78;68.40
33151;BME280;19508;42.578;23.416;2023-02-17T06:21:06;94593.47;;;1.95;67.81
33151;BME280;19508;42.578;23.416;2023-02-17T06:23:31;94592.13;;;2.00;67.75
33151;BME280;19508;42.578;23.416;2023-02-17T06:25:57;94586.88;;;1.91;68.43
33151;BME280;19508;42.578;23.416;2023-02-17T06:28:22;94584.50;;;2.26;68.40
33151;BME280;19508;42.578;23.416;2023-02-17T06:30:48;94591.38;;;2.50;67.81
33151;BME280;19508;42.578;23.416;2023-02-17T06:33:13;94589.53;;;2.65;67.01
33151;BME280;19508;42.578;23.416;2023-02-17T06:35:39;94598.22;;;2.74;66.92
33151;BME280;19508;42.578;23.416;2023-02-17T06:38:04;94588.94;;;2.85;66.52
33151;BME280;19508;42.578;23.416;2023-02-17T06:40:29;94600.69;;;3.11;65.68
33151;BME280;19508;42.578;23.416;2023-02-17T06:42:55;94601.19;;;3.22;65.18
33151;BME280;19508;42.578;23.416;2023-02-17T06:45:20;94588.75;;;3.50;63.85
33151;BME280;19508;42.578;23.416;2023-02-17T06:47:46;94591.25;;;4.08;63.38
33151;BME280;19508;42.578;23.416;2023-02-17T06:50:11;94588.72;;;4.62;60.40
33151;BME280;19508;42.578;23.416;2023-02-17T06:52:37;94595.84;;;5.03;60.59
33151;BME280;19508;42.578;23.416;2023-02-17T06:55:03;94590.16;;;5.26;59.26
33151;BME280;19508;42.578;23.416;2023-02-17T06:57:29;94592.75;;;6.07;56.96
33151;BME280;19508;42.578;23.416;2023-02-17T06:59:54;94591.09;;;6.06;56.46
33151;BME280;19508;42.578;23.416;2023-02-17T07:02:20;94590.22;;;6.52;55.83
33151;BME280;19508;42.578;23.416;2023-02-17T07:04:45;94597.56;;;6.63;54.71
33151;BME280;19508;42.578;23.416;2023-02-17T07:07:11;94590.72;;;6.87;54.15
33151;BME280;19508;42.578;23.416;2023-02-17T07:09:37;94595.56;;;7.10;53.62
33151;BME280;19508;42.578;23.416;2023-02-17T07:12:03;94590.97;;;6.72;54.63
33151;BME280;19508;42.578;23.416;2023-02-17T07:14:31;94590.50;;;6.82;53.52
33151;BME280;19508;42.578;23.416;2023-02-17T07:16:57;94599.44;;;6.69;54.37
33151;BME280;19508;42.578;23.416;2023-02-17T07:19:22;94603.97;;;6.48;54.31
33151;BME280;19508;42.578;23.416;2023-02-17T07:21:48;94600.13;;;6.25;54.81
33151;BME280;19508;42.578;23.416;2023-02-17T07:24:13;94604.06;;;6.02;55.21
33151;BME280;19508;42.578;23.416;2023-02-17T07:26:39;94613.91;;;6.15;55.10
33151;BME280;19508;42.578;23.416;2023-02-17T07:29:06;94620.84;;;6.56;54.43
33151;BME280;19508;42.578;23.416;2023-02-17T07:31:32;94620.19;;;6.80;53.30
33151;BME280;19508;42.578;23.416;2023-02-17T07:33:58;94604.84;;;7.07;51.62
33151;BME280;19508;42.578;23.416;2023-02-17T07:36:24;94605.09;;;7.69;50.60
33151;BME280;19508;42.578;23.416;2023-02-17T07:38:49;94609.66;;;8.00;49.60
33151;BME280;19508;42.578;23.416;2023-02-17T07:41:18;94603.56;;;8.61;49.03
33151;BME280;19508;42.578;23.416;2023-02-17T07:43:45;94604.38;;;8.80;47.83
33151;BME280;19508;42.578;23.416;2023-02-17T07:46:11;94604.53;;;9.03;47.55
33151;BME280;19508;42.578;23.416;2023-02-17T07:48:37;94612.03;;;9.31;45.73
33151;BME280;19508;42.578;23.416;2023-02-17T07:51:08;94617.19;;;9.51;45.77
33151;BME280;19508;42.578;23.416;2023-02-17T07:53:34;94595.28;;;9.77;45.30
33151;BME280;19508;42.578;23.416;2023-02-17T07:56:05;94618.94;;;10.29;44.44
33151;BME280;19508;42.578;23.416;2023-02-17T07:58:32;94601.75;;;10.65;42.22
33151;BME280;19508;42.578;23.416;2023-02-17T08:01:03;94605.19;;;11.24;42.68
33151;BME280;19508;42.578;23.416;2023-02-17T08:03:28;94612.66;;;12.02;40.90
33151;BME280;19508;42.578;23.416;2023-02-17T08:05:54;94607.66;;;11.94;39.79
33151;BME280;19508;42.578;23.416;2023-02-17T08:08:19;94605.47;;;12.75;38.94
33151;BME280;19508;42.578;23.416;2023-02-17T08:11:03;94606.44;;;12.86;38.13
33151;BME280;19508;42.578;23.416;2023-02-17T08:13:47;94610.56;;;12.38;39.30
33151;BME280;19508;42.578;23.416;2023-02-17T08:16:13;94602.22;;;12.23;38.56
33151;BME280;19508;42.578;23.416;2023-02-17T08:18:38;94608.06;;;12.87;37.27
33151;BME280;19508;42.578;23.416;2023-02-17T08:21:03;94603.78;;;13.24;36.65
33151;BME280;19508;42.578;23.416;2023-02-17T08:23:29;94606.97;;;13.21;37.38
33151;BME280;19508;42.578;23.416;2023-02-17T08:25:57;94601.09;;;13.73;36.17
33151;BME280;19508;42.578;23.416;2023-02-17T08:28:23;94601.81;;;14.45;34.34
33151;BME280;19508;42.578;23.416;2023-02-17T08:30:50;94597.16;;;14.72;34.44
33151;BME280;19508;42.578;23.416;2023-02-17T08:33:15;94595.63;;;14.86;32.84
33151;BME280;19508;42.578;23.416;2023-02-17T08:35:46;94592.59;;;15.25;32.74
33151;BME280;19508;42.578;23.416;2023-02-17T08:38:11;94602.91;;;15.75;30.95
33151;BME280;19508;42.578;23.416;2023-02-17T08:40:37;94596.41;;;15.29;32.00
33151;BME280;19508;42.578;23.416;2023-02-17T08:43:02;94591.38;;;15.01;31.14
33151;BME280;19508;42.578;23.416;2023-02-17T08:45:28;94594.13;;;14.63;31.90
33151;BME280;19508;42.578;23.416;2023-02-17T08:47:54;94596.66;;;15.22;31.34
33151;BME280;19508;42.578;23.416;2023-02-17T08:50:20;94593.38;;;15.73;30.65
33151;BME280;19508;42.578;23.416;2023-02-17T08:52:46;94590.75;;;16.03;30.08
33151;BME280;19508;42.578;23.416;2023-02-17T08:55:12;94592.34;;;15.94;30.17
33151;BME280;19508;42.578;23.416;2023-02-17T08:57:38;94583.78;;;15.03;30.68
33151;BME280;19508;42.578;23.416;2023-02-17T09:00:07;94594.53;;;15.35;30.27
33151;BME280;19508;42.578;23.416;2023-02-17T09:02:33;94597.13;;;15.62;31.23
33151;BME280;19508;42.578;23.416;2023-02-17T09:04:58;94594.84;;;15.43;30.58
33151;BME280;19508;42.578;23.416;2023-02-17T09:07:24;94598.38;;;16.12;30.89
33151;BME280;19508;42.578;23.416;2023-02-17T09:09:51;94596.81;;;16.77;28.66
33151;BME280;19508;42.578;23.416;2023-02-17T09:12:16;94595.66;;;16.17;30.37
33151;BME280;19508;42.578;23.416;2023-02-17T09:14:42;94602.78;;;16.94;30.36
33151;BME280;19508;42.578;23.416;2023-02-17T09:17:08;94596.78;;;17.12;28.42
33151;BME280;19508;42.578;23.416;2023-02-17T09:19:37;94607.09;;;16.34;29.18
33151;BME280;19508;42.578;23.416;2023-02-17T09:22:03;94594.09;;;16.77;29.80
33151;BME280;19508;42.578;23.416;2023-02-17T09:24:28;94591.34;;;16.51;28.78
33151;BME280;19508;42.578;23.416;2023-02-17T09:26:53;94588.31;;;16.07;30.98
33151;BME280;19508;42.578;23.416;2023-02-17T09:29:19;94587.22;;;16.08;30.10
33151;BME280;19508;42.578;23.416;2023-02-17T09:31:44;94583.19;;;16.36;29.44
33151;BME280;19508;42.578;23.416;2023-02-17T09:34:10;94589.69;;;16.40;30.64
33151;BME280;19508;42.578;23.416;2023-02-17T09:36:40;94578.19;;;17.40;27.76
33151;BME280;19508;42.578;23.416;2023-02-17T09:39:06;94572.63;;;17.75;28.72
33151;BME280;19508;42.578;23.416;2023-02-17T09:41:49;94574.03;;;18.17;27.43
33151;BME280;19508;42.578;23.416;2023-02-17T09:44:21;94573.13;;;17.83;27.83
33151;BME280;19508;42.578;23.416;2023-02-17T09:47:09;94579.66;;;16.91;28.48
33151;BME280;19508;42.578;23.416;2023-02-17T09:49:41;94572.06;;;17.79;28.41
33151;BME280;19508;42.578;23.416;2023-02-17T09:52:13;94579.41;;;17.83;27.03
33151;BME280;19508;42.578;23.416;2023-02-17T09:57:25;94581.31;;;18.27;26.83
33151;BME280;19508;42.578;23.416;2023-02-17T10:00:08;94570.13;;;18.63;26.85
33151;BME280;19508;42.578;23.416;2023-02-17T10:02:48;94565.84;;;18.56;26.27
33151;BME280;19508;42.578;23.416;2023-02-17T10:05:21;94567.34;;;19.07;26.23
33151;BME280;19508;42.578;23.416;2023-02-17T10:07:54;94557.69;;;18.51;26.38
33151;BME280;19508;42.578;23.416;2023-02-17T10:10:36;94559.44;;;19.29;24.12
33151;BME280;19508;42.578;23.416;2023-02-17T10:13:04;94552.50;;;19.66;23.58
33151;BME280;19508;42.578;23.416;2023-02-17T10:15:35;94555.72;;;19.20;25.07
33151;BME280;19508;42.578;23.416;2023-02-17T10:18:09;94554.59;;;17.85;26.43
33151;BME280;19508;42.578;23.416;2023-02-17T10:20:42;94556.34;;;19.12;25.08
33151;BME280;19508;42.578;23.416;2023-02-17T10:23:21;94547.31;;;19.64;24.80
33151;BME280;19508;42.578;23.416;2023-02-17T10:26:18;94550.94;;;19.31;24.94
33151;BME280;19508;42.578;23.416;2023-02-17T10:34:09;94543.13;;;19.24;25.23
33151;BME280;19508;42.578;23.416;2023-02-17T10:36:43;94538.22;;;18.68;26.28
33151;BME280;19508;42.578;23.416;2023-02-17T10:39:50;94530.47;;;18.46;26.25
33151;BME280;19508;42.578;23.416;2023-02-17T10:42:23;94522.22;;;18.22;25.16
33151;BME280;19508;42.578;23.416;2023-02-17T10:44:50;94531.38;;;17.33;25.95
33151;BME280;19508;42.578;23.416;2023-02-17T10:47:18;94516.44;;;17.30;25.92
33151;BME280;19508;42.578;23.416;2023-02-17T10:49:48;94523.09;;;17.63;26.44
33151;BME280;19508;42.578;23.416;2023-02-17T10:52:20;94512.22;;;17.58;27.29
33151;BME280;19508;42.578;23.416;2023-02-17T10:55:00;94512.16;;;17.79;24.88
33151;BME280;19508;42.578;23.416;2023-02-17T10:57:32;94495.75;;;18.86;23.32
33151;BME280;19508;42.578;23.416;2023-02-17T10:59:59;94501.19;;;18.91;23.26
33151;BME280;19508;42.578;23.416;2023-02-17T11:02:38;94495.38;;;18.98;22.83
33151;BME280;19508;42.578;23.416;2023-02-17T11:05:05;94496.63;;;18.81;23.08
33151;BME280;19508;42.578;23.416;2023-02-17T11:07:36;94484.69;;;19.25;22.07
33151;BME280;19508;42.578;23.416;2023-02-17T11:12:53;94495.91;;;18.02;23.75
33151;BME280;19508;42.578;23.416;2023-02-17T11:15:23;94484.28;;;18.26;22.92
33151;BME280;19508;42.578;23.416;2023-02-17T11:17:50;94489.59;;;18.12;23.60
33151;BME280;19508;42.578;23.416;2023-02-17T11:22:46;94485.94;;;18.85;22.54
33151;BME280;19508;42.578;23.416;2023-02-17T11:27:51;94473.78;;;19.01;22.79
33151;BME280;19508;42.578;23.416;2023-02-17T11:30:17;94477.06;;;19.22;23.34
33151;BME280;19508;42.578;23.416;2023-02-17T11:32:43;94468.09;;;18.98;23.86
33151;BME280;19508;42.578;23.416;2023-02-17T11:35:30;94468.63;;;19.42;22.87
33151;BME280;19508;42.578;23.416;2023-02-17T11:40:36;94470.88;;;18.93;22.78
33151;BME280;19508;42.578;23.416;2023-02-17T11:43:03;94468.44;;;18.91;22.57
33151;BME280;19508;42.578;23.416;2023-02-17T11:45:45;94463.81;;;19.34;23.23
33151;BME280;19508;42.578;23.416;2023-02-17T11:54:25;94461.75;;;19.02;23.11
33151;BME280;19508;42.578;23.416;2023-02-17T12:05:26;94455.16;;;17.87;23.53
33151;BME280;19508;42.578;23.416;2023-02-17T12:13:49;94449.34;;;17.99;23.85
33151;BME280;19508;42.578;23.416;2023-02-17T12:21:41;94441.19;;;20.28;22.85
33151;BME280;19508;42.578;23.416;2023-02-17T12:24:15;94427.50;;;20.61;21.24
33151;BME280;19508;42.578;23.416;2023-02-17T12:26:45;94432.34;;;20.50;21.75
33151;BME280;19508;42.578;23.416;2023-02-17T12:34:58;94413.69;;;19.87;22.30
33151;BME280;19508;42.578;23.416;2023-02-17T12:37:37;94414.00;;;19.66;23.23
33151;BME280;19508;42.578;23.416;2023-02-17T12:40:21;94409.81;;;19.31;23.19
33151;BME280;19508;42.578;23.416;2023-02-17T12:42:58;94403.06;;;19.66;23.62
33151;BME280;19508;42.578;23.416;2023-02-17T12:45:35;94413.75;;;20.00;23.16
33151;BME280;19508;42.578;23.416;2023-02-17T12:48:08;94406.25;;;20.71;22.31
33151;BME280;19508;42.578;23.416;2023-02-17T12:50:38;94385.34;;;21.17;21.65
33151;BME280;19508;42.578;23.416;2023-02-17T12:53:14;94407.94;;;19.69;23.27
33151;BME280;19508;42.578;23.416;2023-02-17T12:55:52;94399.97;;;20.06;23.22
33151;BME280;19508;42.578;23.416;2023-02-17T12:58:23;94400.66;;;20.30;23.53
33151;BME280;19508;42.578;23.416;2023-02-17T13:00:56;94404.31;;;20.25;23.48
33151;BME280;19508;42.578;23.416;2023-02-17T13:03:24;94387.00;;;20.90;22.56
33151;BME280;19508;42.578;23.416;2023-02-17T13:06:19;94383.53;;;21.12;21.93
33151;BME280;19508;42.578;23.416;2023-02-17T13:09:19;94381.31;;;20.87;21.85
33151;BME280;19508;42.578;23.416;2023-02-17T13:11:48;94393.56;;;20.29;22.76
33151;BME280;19508;42.578;23.416;2023-02-17T13:14:42;94385.78;;;21.37;22.04
33151;BME280;19508;42.578;23.416;2023-02-17T13:17:31;94381.34;;;21.28;21.85
33151;BME280;19508;42.578;23.416;2023-02-17T13:22:36;94386.13;;;21.58;21.13
33151;BME280;19508;42.578;23.416;2023-02-17T13:25:01;94383.47;;;22.88;20.05
33151;BME280;19508;42.578;23.416;2023-02-17T13:27:31;94381.88;;;22.64;20.29
33151;BME280;19508;42.578;23.416;2023-02-17T13:32:36;94375.06;;;25.77;18.10
33151;BME280;19508;42.578;23.416;2023-02-17T13:35:10;94375.63;;;25.32;18.51
33151;BME280;19508;42.578;23.416;2023-02-17T13:37:44;94366.69;;;25.06;18.06
33151;BME280;19508;42.578;23.416;2023-02-17T13:45:24;94371.16;;;25.99;17.51
33151;BME280;19508;42.578;23.416;2023-02-17T13:47:56;94364.84;;;26.52;17.29
33151;BME280;19508;42.578;23.416;2023-02-17T13:50:45;94372.13;;;26.36;16.72
33151;BME280;19508;42.578;23.416;2023-02-17T13:53:33;94365.22;;;26.09;17.17
33151;BME280;19508;42.578;23.416;2023-02-17T13:56:03;94368.66;;;25.85;17.25
33151;BME280;19508;42.578;23.416;2023-02-17T13:58:33;94363.44;;;25.03;17.87
33151;BME280;19508;42.578;23.416;2023-02-17T14:01:01;94370.94;;;24.04;18.35
33151;BME280;19508;42.578;23.416;2023-02-17T14:03:28;94368.97;;;24.31;18.43
33151;BME280;19508;42.578;23.416;2023-02-17T14:05:56;94361.97;;;23.29;18.77
33151;BME280;19508;42.578;23.416;2023-02-17T14:08:31;94362.84;;;24.34;18.86
33151;BME280;19508;42.578;23.416;2023-02-17T14:13:58;94370.44;;;24.28;18.11
33151;BME280;19508;42.578;23.416;2023-02-17T14:16:36;94371.25;;;24.29;18.31
33151;BME280;19508;42.578;23.416;2023-02-17T14:19:13;94374.84;;;24.03;18.57
33151;BME280;19508;42.578;23.416;2023-02-17T14:21:57;94369.66;;;23.93;18.69
33151;BME280;19508;42.578;23.416;2023-02-17T14:24:28;94373.69;;;21.25;20.21